LICJ/PMO METAR and TAF weather

Enter ICAO airport designator
Station Type Date Time Source
LICJ METAR 2020/08/05 15:50 UTC NOAA

LICJ 051550Z 30011KT CAVOK 27/18 Q1010


Station Type Date Time Source
LICJ Decoded METAR 2020/08/05 15:50 UTC NOAA

Palermo / Punta Raisi, Italy (LICJ) 38-11N 013-06E 21M
Aug 05, 2020 - 11:50 AM EDT / 2020.08.05 1550 UTC
Wind: from the WNW (300 degrees) at 13 MPH (11 KT):0
Visibility: greater than 7 mile(s):0
Temperature: 80 F (27 C)
Dew Point: 64 F (18 C)
Relative Humidity: 57%
Pressure (altimeter): 29.83 in. Hg (1010 hPa)
ob: LICJ 051550Z 30011KT CAVOK 27/18 Q1010
cycle: 16

Station Type Date Time Source
LICJ TAF 2020/08/05 12:21 UTC NOAA

TAF LICJ 051100Z 0512/0612 32015KT 9999 SCT030

Example: see airport list